This is the latest recevied weather packets stored in our database for station/object W0VI. If no packets are shown the sender has not sent any weather packets the latest 10 day(s).
| Time | Temp. | Humidity | Pressure | Rain* | Wind** | Luminosity | Snow |
|---|---|---|---|---|---|---|---|
| 1787585808 | 23.33° C | 63% | 1017.7 hPa | 0 mm | - | 223 W/m² | - |
| 1787585503 | 23.89° C | 62% | 1017.6 hPa | 0 mm | - | 402 W/m² | - |
| 1787585198 | 22.78° C | 65% | 1017.7 hPa | 0 mm | - | 603 W/m² | - |
| 1787584893 | 22.78° C | 65% | 1017.8 hPa | 0 mm | - | 288 W/m² | - |
| 1787584592 | 22.78° C | 65% | 1017.7 hPa | 0 mm | - | 313 W/m² | - |
| 1787584286 | 22.22° C | 64% | 1017.8 hPa | 0 mm | - | 533 W/m² | - |
| 1787583985 | 21.67° C | 67% | 1018 hPa | 0 mm | - | 563 W/m² | - |
| 1787583681 | 21.11° C | 70% | 1017.7 hPa | 0 mm | - | 273 W/m² | - |
| 1787583381 | 21.11° C | 70% | 1017.8 hPa | 0 mm | - | 114 W/m² | - |
| 1787583079 | 21.11° C | 70% | 1017.9 hPa | 0 mm | - | 135 W/m² | - |
| 1787582774 | 21.11° C | 71% | 1017.9 hPa | 0 mm | - | 179 W/m² | - |
| 1787582470 | 20.56° C | 72% | 1018.1 hPa | 0 mm | - | 188 W/m² | - |
| 1787582165 | 20.56° C | 71% | 1018.1 hPa | 0 mm | - | 147 W/m² | - |
| 1787581865 | 20.56° C | 71% | 1018 hPa | 0 mm | - | 158 W/m² | - |
| 1787581560 | 20.56° C | 71% | 1017.9 hPa | 0 mm | - | 273 W/m² | - |
| 1787581260 | 20° C | 73% | 1018.2 hPa | 0 mm | - | 196 W/m² | - |
| 1787580955 | 20° C | 71% | 1018.2 hPa | 0 mm | - | 196 W/m² | - |
| 1787580651 | 20° C | 72% | 1018 hPa | 0 mm | - | 208 W/m² | - |
| 1787580346 | 20° C | 72% | 1018 hPa | 0 mm | - | 286 W/m² | - |
| 1787580042 | 20° C | 73% | 1018 hPa | 0 mm | - | 167 W/m² | - |
| 1787579741 | 20° C | 73% | 1018 hPa | 0 mm | - | 173 W/m² | - |
| 1787579441 | 19.44° C | 74% | 1018.2 hPa | 0 mm | - | 202 W/m² | - |
| 1787579136 | 19.44° C | 73% | 1018.1 hPa | 0 mm | - | 273 W/m² | - |
| 1787578832 | 18.33° C | 78% | 1017.9 hPa | 0 mm | - | 258 W/m² | - |
| 1787578527 | 17.78° C | 81% | 1017.8 hPa | 0 mm | - | 198 W/m² | - |
* Rain latest hour (hover to see other rain measurements)
** Current wind speed in m/s (hover to see current wind gust speed)